createdAt,value
2023-05-15T00:01:26.657Z,11.12
2023-05-15T00:03:55.372Z,11.08
2023-05-15T00:06:23.868Z,10.96
2023-05-15T00:08:52.344Z,10.95
2023-05-15T00:11:23.692Z,10.97
2023-05-15T00:13:53.421Z,10.90
2023-05-15T00:16:22.143Z,10.88
2023-05-15T00:18:50.611Z,10.89
2023-05-15T00:21:18.903Z,10.91
2023-05-15T00:23:47.723Z,10.94
2023-05-15T00:26:16.571Z,10.90
2023-05-15T00:28:44.765Z,10.88
2023-05-15T00:31:14.947Z,10.82
2023-05-15T00:33:43.300Z,10.82
2023-05-15T00:36:11.718Z,10.81
2023-05-15T00:38:39.921Z,10.71
2023-05-15T00:41:09.037Z,10.73
2023-05-15T00:43:38.026Z,10.66
2023-05-15T00:46:08.306Z,10.67
2023-05-15T00:48:38.862Z,10.66
2023-05-15T00:51:07.124Z,10.60
2023-05-15T00:53:35.479Z,10.60
2023-05-15T00:56:06.058Z,10.63
2023-05-15T00:58:35.550Z,10.58
2023-05-15T01:01:04.464Z,10.52
2023-05-15T01:03:33.987Z,10.47
2023-05-15T01:06:03.756Z,10.48
2023-05-15T01:08:41.359Z,10.49
2023-05-15T01:11:10.592Z,10.44
2023-05-15T01:13:38.831Z,10.45
2023-05-15T01:16:07.964Z,10.41
2023-05-15T01:18:37.044Z,10.42
2023-05-15T01:21:36.379Z,10.39
2023-05-15T01:24:21.933Z,10.34
2023-05-15T01:27:19.463Z,10.28
2023-05-15T01:29:57.120Z,10.36
2023-05-15T01:32:31.077Z,10.37
2023-05-15T01:35:07.687Z,10.30
2023-05-15T01:37:42.463Z,10.32
2023-05-15T01:40:13.136Z,10.28
2023-05-15T01:42:48.205Z,10.26
2023-05-15T01:45:17.184Z,10.27
2023-05-15T01:47:47.662Z,10.23
2023-05-15T01:50:19.889Z,10.18
2023-05-15T01:52:50.717Z,10.14
2023-05-15T01:55:21.395Z,10.11
2023-05-15T01:57:52.401Z,10.09
2023-05-15T02:00:22.045Z,10.11
2023-05-15T02:02:51.298Z,10.12
2023-05-15T02:05:20.126Z,10.13
2023-05-15T02:07:49.577Z,10.09
2023-05-15T02:10:19.620Z,10.08
2023-05-15T02:12:48.455Z,10.01
2023-05-15T02:15:18.842Z,10.02
2023-05-15T02:17:47.995Z,9.99
2023-05-15T02:20:16.291Z,9.98
2023-05-15T02:22:44.460Z,9.98
2023-05-15T02:25:12.644Z,9.98
2023-05-15T02:27:49.841Z,9.96
2023-05-15T02:30:34.343Z,9.92
2023-05-15T02:33:13.892Z,9.90
2023-05-15T02:35:49.725Z,9.90
2023-05-15T02:38:21.345Z,9.91
2023-05-15T02:40:49.684Z,9.84
2023-05-15T02:43:20.154Z,9.85
2023-05-15T02:45:50.711Z,9.83
2023-05-15T02:48:19.435Z,9.82
2023-05-15T02:50:47.833Z,9.83
2023-05-15T02:53:16.445Z,9.83
2023-05-15T02:55:44.560Z,9.80
2023-05-15T02:58:13.068Z,9.80
2023-05-15T03:00:41.378Z,9.77
2023-05-15T03:03:11.030Z,9.73
2023-05-15T03:05:39.207Z,9.66
2023-05-15T03:08:07.625Z,9.57
2023-05-15T03:10:35.887Z,9.58
2023-05-15T03:13:04.452Z,9.57
2023-05-15T03:15:32.617Z,9.52
2023-05-15T03:18:00.787Z,9.51
2023-05-15T03:20:30.404Z,9.53
2023-05-15T03:22:58.618Z,9.46
2023-05-15T03:25:27.412Z,9.44
2023-05-15T03:27:55.896Z,9.40
2023-05-15T03:30:24.365Z,9.38
2023-05-15T03:32:52.613Z,9.36
2023-05-15T03:35:21.014Z,9.32
2023-05-15T03:37:50.613Z,9.29
2023-05-15T03:40:18.776Z,9.28
2023-05-15T03:42:46.986Z,9.29
2023-05-15T03:45:15.232Z,9.24
2023-05-15T03:47:43.423Z,9.18
2023-05-15T03:50:12.671Z,9.15
2023-05-15T03:52:42.245Z,9.14
2023-05-15T03:55:12.083Z,9.07
2023-05-15T03:57:41.639Z,9.07
2023-05-15T04:00:11.339Z,9.08
2023-05-15T04:02:40.377Z,9.04
2023-05-15T04:05:09.629Z,9.04
2023-05-15T04:07:39.121Z,9.03
2023-05-15T04:10:09.187Z,8.99
2023-05-15T04:12:38.856Z,8.95
2023-05-15T04:15:17.653Z,8.94
2023-05-15T04:17:47.097Z,8.96
2023-05-15T04:20:18.021Z,8.95
2023-05-15T04:22:46.891Z,8.98
2023-05-15T04:25:16.253Z,8.95
2023-05-15T04:27:46.134Z,8.98
2023-05-15T04:30:14.723Z,9.00
2023-05-15T04:32:43.432Z,9.04
2023-05-15T04:35:13.638Z,9.05
2023-05-15T04:37:43.102Z,9.11
2023-05-15T04:40:12.332Z,9.10
2023-05-15T04:42:40.533Z,9.10
2023-05-15T04:45:10.961Z,9.13
2023-05-15T04:47:39.342Z,9.17
2023-05-15T04:50:09.264Z,9.26
2023-05-15T04:52:37.528Z,9.40
2023-05-15T04:55:06.714Z,9.46
2023-05-15T04:57:34.931Z,9.44
2023-05-15T05:00:05.418Z,9.43
2023-05-15T05:02:35.024Z,9.46
2023-05-15T05:05:03.277Z,9.43
2023-05-15T05:07:31.390Z,9.41
2023-05-15T05:09:59.523Z,9.44
2023-05-15T05:12:28.098Z,9.42
2023-05-15T05:14:56.959Z,9.38
2023-05-15T05:17:25.210Z,9.41
2023-05-15T05:19:54.848Z,9.42
2023-05-15T05:22:23.132Z,9.43
2023-05-15T05:24:51.306Z,9.51
2023-05-15T05:27:19.887Z,9.55
2023-05-15T05:29:48.186Z,9.56
2023-05-15T05:32:16.244Z,9.62
2023-05-15T05:34:44.434Z,9.67
2023-05-15T05:37:14.174Z,9.73
2023-05-15T05:39:42.311Z,9.75
2023-05-15T05:42:10.715Z,9.80
2023-05-15T05:44:38.976Z,9.86
2023-05-15T05:47:07.224Z,9.92
2023-05-15T05:49:35.474Z,9.95
2023-05-15T05:52:08.625Z,9.89
2023-05-15T05:54:38.128Z,9.98
2023-05-15T05:57:07.767Z,10.03
2023-05-15T05:59:37.432Z,9.98
2023-05-15T06:02:06.111Z,10.02
2023-05-15T06:04:34.743Z,10.09
2023-05-15T06:07:04.662Z,10.08
2023-05-15T06:09:32.863Z,10.13
2023-05-15T06:12:04.810Z,10.19
2023-05-15T06:14:33.038Z,10.15
2023-05-15T06:17:02.122Z,10.23
2023-05-15T06:19:30.848Z,10.22
2023-05-15T06:21:59.090Z,10.29
2023-05-15T06:24:27.261Z,10.39
2023-05-15T06:26:55.653Z,10.47
2023-05-15T06:29:25.255Z,10.64
2023-05-15T06:31:53.476Z,10.95
2023-05-15T06:34:21.732Z,11.49
2023-05-15T06:36:49.795Z,12.00
2023-05-15T06:39:18.129Z,12.26
2023-05-15T06:41:46.273Z,12.31
2023-05-15T06:44:14.504Z,12.21
2023-05-15T06:46:44.153Z,12.12
2023-05-15T06:49:12.424Z,11.97
2023-05-15T06:51:40.566Z,11.80
2023-05-15T06:54:08.933Z,11.66
2023-05-15T06:56:37.088Z,11.57
2023-05-15T06:59:05.309Z,11.39
2023-05-15T07:01:33.590Z,11.39
2023-05-15T07:04:03.576Z,11.42
2023-05-15T07:06:32.580Z,11.39
2023-05-15T07:09:00.885Z,11.69
2023-05-15T07:11:29.640Z,12.07
2023-05-15T07:13:57.876Z,12.47
2023-05-15T07:16:26.056Z,12.77
2023-05-15T07:18:54.266Z,13.14
2023-05-15T07:21:24.005Z,13.32
2023-05-15T07:23:52.238Z,13.44
2023-05-15T07:26:32.514Z,13.57
2023-05-15T07:29:04.806Z,13.59
2023-05-15T07:31:33.736Z,13.56
2023-05-15T07:34:01.878Z,13.54
2023-05-15T07:36:31.817Z,13.49
2023-05-15T07:39:00.028Z,13.41
2023-05-15T07:41:28.143Z,13.38
2023-05-15T07:43:56.353Z,13.30
2023-05-15T07:46:24.792Z,13.14
2023-05-15T07:48:52.969Z,13.09
2023-05-15T07:51:21.050Z,13.02
2023-05-15T07:53:50.739Z,13.01
2023-05-15T07:56:18.846Z,13.03
2023-05-15T07:58:47.071Z,13.09
2023-05-15T08:01:15.245Z,13.12
2023-05-15T08:03:43.687Z,13.13
2023-05-15T08:06:11.870Z,13.14
2023-05-15T08:08:40.040Z,13.14
2023-05-15T08:11:09.642Z,13.13
2023-05-15T08:13:37.824Z,13.17
2023-05-15T08:16:06.800Z,13.21
2023-05-15T08:18:35.135Z,13.22
2023-05-15T08:21:04.775Z,13.25
2023-05-15T08:23:33.038Z,13.30
2023-05-15T08:26:01.227Z,13.35
2023-05-15T08:28:30.890Z,13.40
2023-05-15T08:30:59.040Z,13.48
2023-05-15T08:33:27.176Z,13.42
2023-05-15T08:35:55.430Z,13.40
2023-05-15T08:38:23.971Z,13.40
2023-05-15T08:40:54.136Z,13.46
2023-05-15T08:43:24.731Z,13.53
2023-05-15T08:45:56.275Z,13.58
2023-05-15T08:48:26.410Z,13.63
2023-05-15T08:50:57.889Z,13.68
2023-05-15T08:53:26.264Z,13.74
2023-05-15T08:55:54.474Z,13.83
2023-05-15T08:58:26.159Z,13.85
2023-05-15T09:00:55.801Z,13.87
2023-05-15T09:03:24.463Z,13.82
2023-05-15T09:05:54.000Z,13.98
2023-05-15T09:08:23.890Z,14.05
2023-05-15T09:10:54.369Z,14.06
2023-05-15T09:13:22.453Z,14.17
2023-05-15T09:15:50.861Z,14.23
2023-05-15T09:18:21.364Z,14.23
2023-05-15T09:20:49.485Z,14.14
2023-05-15T09:23:26.163Z,14.05
2023-05-15T09:25:56.380Z,13.93
2023-05-15T09:28:30.044Z,14.03
2023-05-15T09:31:01.217Z,14.20
2023-05-15T09:33:33.149Z,14.45
2023-05-15T09:36:01.948Z,14.67
2023-05-15T09:38:30.997Z,14.73
2023-05-15T09:41:03.964Z,14.80
2023-05-15T09:43:36.384Z,14.82
2023-05-15T09:46:04.790Z,14.79
2023-05-15T09:48:35.618Z,14.65
2023-05-15T09:51:05.874Z,14.72
2023-05-15T09:53:34.726Z,14.93
2023-05-15T09:56:04.707Z,15.16
2023-05-15T09:58:33.120Z,15.35
2023-05-15T10:01:02.797Z,15.43
2023-05-15T10:03:31.024Z,15.32
2023-05-15T10:06:04.814Z,15.14
2023-05-15T10:08:34.546Z,14.96
2023-05-15T10:11:03.792Z,14.93
2023-05-15T10:13:35.602Z,15.03
2023-05-15T10:16:05.027Z,15.24
2023-05-15T10:18:37.306Z,15.45
2023-05-15T10:21:09.010Z,15.56
2023-05-15T10:23:37.750Z,15.58
2023-05-15T10:26:12.450Z,15.57
2023-05-15T10:28:42.924Z,15.51
2023-05-15T10:31:14.139Z,15.61
2023-05-15T10:33:43.273Z,15.73
2023-05-15T10:36:14.586Z,15.73
2023-05-15T10:38:44.572Z,15.59
2023-05-15T10:41:17.714Z,15.53
2023-05-15T10:43:47.140Z,15.44
2023-05-15T10:46:16.228Z,15.27
2023-05-15T10:48:44.958Z,15.15
2023-05-15T10:51:28.677Z,14.98
2023-05-15T10:53:58.196Z,14.88
2023-05-15T10:56:28.333Z,14.85
2023-05-15T10:58:56.901Z,14.80
2023-05-15T11:01:29.695Z,14.79
2023-05-15T11:04:11.529Z,14.85
2023-05-15T11:06:42.473Z,14.90
2023-05-15T11:09:36.507Z,14.98
2023-05-15T11:12:06.430Z,14.99
2023-05-15T11:14:37.410Z,15.03
2023-05-15T11:17:07.407Z,15.16
2023-05-15T11:19:42.338Z,15.24
2023-05-15T11:22:20.521Z,15.30
2023-05-15T11:24:53.732Z,15.32
2023-05-15T11:27:24.047Z,15.39
2023-05-15T11:30:11.761Z,15.48
2023-05-15T11:32:55.702Z,15.51
2023-05-15T11:35:25.658Z,15.54
2023-05-15T11:37:56.816Z,15.51
2023-05-15T11:40:27.686Z,15.55
2023-05-15T11:43:20.488Z,15.64
2023-05-15T11:45:50.422Z,15.65
2023-05-15T11:48:19.734Z,15.66
2023-05-15T11:50:48.255Z,15.60
2023-05-15T11:53:18.256Z,15.53
2023-05-15T11:55:46.524Z,15.47
2023-05-15T11:58:16.400Z,15.44
2023-05-15T12:00:45.752Z,15.43
2023-05-15T12:03:18.265Z,15.60
2023-05-15T12:05:57.396Z,15.71
2023-05-15T12:08:33.637Z,15.77
2023-05-15T12:11:02.513Z,15.81
2023-05-15T12:13:32.060Z,15.90
2023-05-15T12:16:01.046Z,15.97
2023-05-15T12:18:29.348Z,16.04
2023-05-15T12:20:57.954Z,16.30
2023-05-15T12:23:28.995Z,16.62
2023-05-15T12:26:02.163Z,16.94
2023-05-15T12:28:31.312Z,17.13
2023-05-15T12:31:00.770Z,17.07
2023-05-15T12:33:29.381Z,16.94
2023-05-15T12:36:01.048Z,16.80
2023-05-15T12:38:33.984Z,16.73
2023-05-15T12:41:02.306Z,16.56
2023-05-15T12:43:33.006Z,16.41
2023-05-15T12:46:01.176Z,16.50
2023-05-15T12:48:33.618Z,16.48
2023-05-15T12:51:09.232Z,16.65
2023-05-15T12:53:40.059Z,16.48
2023-05-15T12:56:09.135Z,16.41
2023-05-15T12:58:38.375Z,16.36
2023-05-15T13:01:06.904Z,16.47
2023-05-15T13:03:35.725Z,16.40
2023-05-15T13:06:04.420Z,16.20
2023-05-15T13:08:32.701Z,16.06
2023-05-15T13:11:02.230Z,16.16
2023-05-15T13:13:47.217Z,16.43
2023-05-15T13:16:22.815Z,16.86
2023-05-15T13:18:51.296Z,17.15
2023-05-15T13:21:19.540Z,17.02
2023-05-15T13:23:47.725Z,16.75
2023-05-15T13:26:18.725Z,16.62
2023-05-15T13:28:47.034Z,16.38
2023-05-15T13:31:15.296Z,16.16
2023-05-15T13:33:43.536Z,16.07
2023-05-15T13:36:11.707Z,15.87
2023-05-15T13:38:39.869Z,15.74
2023-05-15T13:41:09.236Z,15.73
2023-05-15T13:43:38.779Z,15.68
2023-05-15T13:46:06.977Z,15.60
2023-05-15T13:48:35.148Z,15.65
2023-05-15T13:51:03.382Z,15.65
2023-05-15T13:53:31.581Z,15.64
2023-05-15T13:55:59.757Z,15.65
2023-05-15T13:58:27.923Z,15.58
2023-05-15T14:00:57.589Z,15.51
2023-05-15T14:03:25.949Z,15.49
2023-05-15T14:05:54.221Z,15.48
2023-05-15T14:08:22.401Z,15.50
2023-05-15T14:10:50.530Z,15.45
2023-05-15T14:13:18.655Z,15.42
2023-05-15T14:15:46.855Z,15.46
2023-05-15T14:18:16.459Z,15.44
2023-05-15T14:20:44.724Z,15.54
2023-05-15T14:23:12.931Z,15.53
2023-05-15T14:25:42.303Z,15.62
2023-05-15T14:28:10.488Z,15.55
2023-05-15T14:30:38.820Z,15.59
2023-05-15T14:33:06.966Z,15.64
2023-05-15T14:35:37.587Z,15.54
2023-05-15T14:38:05.906Z,15.48
2023-05-15T14:40:34.127Z,15.51
2023-05-15T14:43:02.207Z,15.52
2023-05-15T14:45:30.315Z,15.52
2023-05-15T14:47:58.549Z,15.53
2023-05-15T14:50:27.107Z,15.55
2023-05-15T14:52:56.872Z,15.59
2023-05-15T14:55:25.051Z,15.65
2023-05-15T14:57:53.132Z,15.58
2023-05-15T15:00:21.519Z,15.54
2023-05-15T15:02:49.741Z,15.58
2023-05-15T15:05:18.670Z,15.63
2023-05-15T15:08:04.213Z,15.55
2023-05-15T15:10:33.394Z,15.55
2023-05-15T15:13:01.710Z,15.57
2023-05-15T15:15:30.267Z,15.57
2023-05-15T15:17:58.713Z,15.60
2023-05-15T15:20:28.192Z,15.58
2023-05-15T15:22:57.307Z,15.57
2023-05-15T15:25:26.881Z,15.74
2023-05-15T15:27:54.999Z,15.84
2023-05-15T15:30:23.333Z,15.82
2023-05-15T15:32:51.623Z,15.79
2023-05-15T15:35:19.754Z,15.69
2023-05-15T15:37:47.908Z,15.73
2023-05-15T15:40:16.144Z,15.81
2023-05-15T15:42:45.708Z,15.90
2023-05-15T15:45:13.847Z,16.02
2023-05-15T15:47:42.038Z,16.21
2023-05-15T15:50:10.617Z,16.30
2023-05-15T15:52:38.809Z,16.29
2023-05-15T15:55:08.182Z,16.42
2023-05-15T15:57:38.016Z,16.59
2023-05-15T16:00:09.718Z,16.72
2023-05-15T16:02:37.925Z,16.81
2023-05-15T16:05:07.789Z,16.91
2023-05-15T16:07:36.287Z,16.90
2023-05-15T16:10:12.246Z,16.88
2023-05-15T16:12:42.635Z,16.69
2023-05-15T16:15:23.194Z,16.63
2023-05-15T16:17:54.352Z,16.38
2023-05-15T16:20:23.544Z,16.22
2023-05-15T16:22:51.754Z,16.08
2023-05-15T16:25:19.978Z,15.99
2023-05-15T16:27:48.078Z,15.85
2023-05-15T16:30:17.690Z,15.78
2023-05-15T16:32:46.666Z,15.68
2023-05-15T16:35:15.029Z,15.54
2023-05-15T16:37:43.164Z,15.46
2023-05-15T16:40:12.231Z,15.45
2023-05-15T16:42:41.499Z,15.43
2023-05-15T16:45:10.675Z,15.42
2023-05-15T16:47:41.447Z,15.44
2023-05-15T16:50:10.574Z,15.42
2023-05-15T16:52:45.216Z,15.46
2023-05-15T16:55:15.498Z,15.39
2023-05-15T16:57:43.988Z,15.38
2023-05-15T17:00:14.252Z,15.37
2023-05-15T17:02:44.229Z,15.38
2023-05-15T17:05:14.121Z,15.36
2023-05-15T17:07:43.263Z,15.31
2023-05-15T17:10:12.509Z,15.29
2023-05-15T17:12:41.156Z,15.26
2023-05-15T17:15:10.008Z,15.30
2023-05-15T17:17:38.270Z,15.29
2023-05-15T17:20:09.238Z,15.33
2023-05-15T17:22:37.506Z,15.31
2023-05-15T17:25:07.178Z,15.32
2023-05-15T17:27:39.903Z,15.31
2023-05-15T17:30:09.812Z,15.31
2023-05-15T17:32:38.216Z,15.35
2023-05-15T17:35:09.251Z,15.33
2023-05-15T17:37:37.686Z,15.33
2023-05-15T17:40:07.111Z,15.30
2023-05-15T17:42:36.111Z,15.33
2023-05-15T17:45:04.494Z,15.32
2023-05-15T17:47:32.624Z,15.34
2023-05-15T17:50:00.946Z,15.36
2023-05-15T17:52:30.415Z,15.32
2023-05-15T17:54:58.563Z,15.28
2023-05-15T17:57:26.800Z,15.26
2023-05-15T17:59:54.825Z,15.18
2023-05-15T18:02:22.986Z,15.21
2023-05-15T18:04:51.241Z,15.15
2023-05-15T18:07:19.659Z,15.16
2023-05-15T18:09:49.272Z,15.15
2023-05-15T18:12:17.511Z,15.12
2023-05-15T18:14:46.138Z,15.08
2023-05-15T18:17:14.269Z,15.04
2023-05-15T18:19:44.952Z,15.02
2023-05-15T18:22:13.196Z,15.03
2023-05-15T18:24:41.479Z,15.05
2023-05-15T18:27:11.064Z,15.02
2023-05-15T18:29:39.318Z,15.00
2023-05-15T18:32:07.778Z,14.96
2023-05-15T18:34:35.910Z,14.92
2023-05-15T18:37:04.053Z,14.95
2023-05-15T18:39:32.150Z,14.99
2023-05-15T18:42:00.475Z,15.01
2023-05-15T18:44:32.380Z,15.02
2023-05-15T18:47:00.746Z,15.05
2023-05-15T18:49:29.612Z,15.05
2023-05-15T18:51:58.021Z,15.06
2023-05-15T18:54:26.482Z,15.03
2023-05-15T18:56:54.692Z,14.98
2023-05-15T18:59:23.479Z,14.90
2023-05-15T19:01:54.010Z,14.84
2023-05-15T19:04:22.751Z,14.83
2023-05-15T19:06:50.909Z,14.83
2023-05-15T19:09:19.348Z,14.74
2023-05-15T19:11:49.548Z,14.70
2023-05-15T19:14:18.633Z,14.69
2023-05-15T19:16:47.241Z,14.64
2023-05-15T19:19:16.939Z,14.62
2023-05-15T19:21:45.164Z,14.61
2023-05-15T19:24:13.634Z,14.58
2023-05-15T19:26:41.793Z,14.56
2023-05-15T19:29:10.024Z,14.52
2023-05-15T19:31:38.858Z,14.53
2023-05-15T19:34:07.042Z,14.50
2023-05-15T19:36:36.633Z,14.48
2023-05-15T19:39:05.100Z,14.45
2023-05-15T19:41:33.190Z,14.41
2023-05-15T19:44:02.198Z,14.37
2023-05-15T19:46:30.841Z,14.32
2023-05-15T19:48:58.969Z,14.26
2023-05-15T19:51:27.206Z,14.19
2023-05-15T19:53:59.311Z,14.15
2023-05-15T19:56:27.600Z,14.09
2023-05-15T19:58:55.798Z,14.03
2023-05-15T20:01:24.005Z,14.02
2023-05-15T20:03:52.299Z,14.01
2023-05-15T20:06:21.477Z,13.98
2023-05-15T20:08:50.411Z,13.99
2023-05-15T20:11:19.928Z,13.99
2023-05-15T20:13:48.034Z,13.99
2023-05-15T20:16:16.749Z,13.99
2023-05-15T20:18:48.092Z,13.99
2023-05-15T20:21:16.925Z,13.98
2023-05-15T20:23:45.258Z,13.96
2023-05-15T20:26:13.339Z,13.94
2023-05-15T20:28:45.222Z,13.94
2023-05-15T20:31:13.748Z,13.91
2023-05-15T20:33:41.981Z,13.90
2023-05-15T20:36:10.731Z,13.86
2023-05-15T20:38:38.923Z,13.84
2023-05-15T20:41:07.181Z,13.79
2023-05-15T20:43:35.366Z,13.78
2023-05-15T20:46:04.991Z,13.75
2023-05-15T20:48:33.184Z,13.70
2023-05-15T20:51:01.382Z,13.68
2023-05-15T20:53:29.758Z,13.67
2023-05-15T20:55:57.947Z,13.68
2023-05-15T20:58:26.245Z,13.69
2023-05-15T21:00:54.435Z,13.69
2023-05-15T21:03:24.305Z,13.71
2023-05-15T21:05:54.835Z,13.69
2023-05-15T21:08:24.956Z,13.65
2023-05-15T21:10:55.566Z,13.63
2023-05-15T21:13:23.787Z,13.62
2023-05-15T21:15:52.222Z,13.58
2023-05-15T21:18:20.434Z,13.52
2023-05-15T21:20:49.963Z,13.50
2023-05-15T21:23:18.321Z,13.45
2023-05-15T21:25:46.641Z,13.43
2023-05-15T21:28:14.840Z,13.38
2023-05-15T21:30:43.048Z,13.33
2023-05-15T21:33:11.370Z,13.28
2023-05-15T21:35:39.845Z,13.27
2023-05-15T21:38:09.504Z,13.26
2023-05-15T21:40:37.841Z,13.24
2023-05-15T21:43:06.095Z,13.19
2023-05-15T21:45:34.230Z,13.17
2023-05-15T21:48:02.574Z,13.14
2023-05-15T21:50:30.795Z,13.12
2023-05-15T21:52:58.970Z,13.10
2023-05-15T21:55:28.580Z,13.08
2023-05-15T21:57:56.769Z,13.07
2023-05-15T22:00:25.241Z,13.01
2023-05-15T22:02:53.652Z,12.98
2023-05-15T22:05:21.885Z,12.91
2023-05-15T22:07:50.113Z,12.88
2023-05-15T22:10:18.511Z,12.88
2023-05-15T22:12:48.068Z,12.83
2023-05-15T22:15:16.774Z,12.82
2023-05-15T22:17:44.946Z,12.79
2023-05-15T22:20:14.274Z,12.77
2023-05-15T22:22:43.608Z,12.75
2023-05-15T22:25:12.136Z,12.71
2023-05-15T22:27:40.403Z,12.67
2023-05-15T22:30:10.997Z,12.67
2023-05-15T22:32:39.371Z,12.60
2023-05-15T22:35:09.243Z,12.59
2023-05-15T22:37:37.316Z,12.58
2023-05-15T22:40:07.610Z,12.56
2023-05-15T22:42:35.828Z,12.54
2023-05-15T22:45:04.367Z,12.51
2023-05-15T22:47:34.482Z,12.49
2023-05-15T22:50:02.904Z,12.47
2023-05-15T22:52:31.019Z,12.43
2023-05-15T22:54:59.323Z,12.40
2023-05-15T22:57:28.306Z,12.36
2023-05-15T22:59:56.473Z,12.36
2023-05-15T23:02:24.714Z,12.31
2023-05-15T23:04:54.230Z,12.28
2023-05-15T23:07:22.712Z,12.24
2023-05-15T23:09:51.029Z,12.21
2023-05-15T23:12:19.173Z,12.18
2023-05-15T23:14:47.261Z,12.18
2023-05-15T23:17:15.435Z,12.12
2023-05-15T23:19:43.610Z,12.09
2023-05-15T23:22:13.983Z,12.07
2023-05-15T23:24:42.331Z,12.03
2023-05-15T23:27:10.422Z,12.01
2023-05-15T23:29:38.520Z,11.98
2023-05-15T23:32:09.776Z,11.99
2023-05-15T23:34:37.925Z,11.97
2023-05-15T23:37:06.481Z,11.94
2023-05-15T23:39:36.291Z,11.89
2023-05-15T23:42:04.539Z,11.90
2023-05-15T23:44:32.830Z,11.88
2023-05-15T23:47:01.047Z,11.87
2023-05-15T23:49:29.367Z,11.84
2023-05-15T23:51:57.514Z,11.80
2023-05-15T23:54:26.129Z,11.78
2023-05-15T23:56:55.777Z,11.77
2023-05-15T23:59:23.953Z,11.75
